createdAt,value
2023-04-13T00:00:52.330Z,100790.03
2023-04-13T00:03:19.339Z,100793.59
2023-04-13T00:05:47.010Z,100789.19
2023-04-13T00:08:14.144Z,100790.13
2023-04-13T00:10:41.475Z,100772.53
2023-04-13T00:13:10.290Z,100760.09
2023-04-13T00:15:40.966Z,100767.03
2023-04-13T00:18:08.988Z,100776.66
2023-04-13T00:20:35.783Z,100773.22
2023-04-13T00:23:03.018Z,100766.09
2023-04-13T00:25:30.650Z,100774.94
2023-04-13T00:27:57.503Z,100768.72
2023-04-13T00:30:24.419Z,100779.19
2023-04-13T00:32:51.185Z,100775.63
2023-04-13T00:35:24.752Z,100765.06
2023-04-13T00:37:52.066Z,100756.28
2023-04-13T00:40:19.130Z,100756.16
2023-04-13T00:42:47.576Z,100765.81
2023-04-13T00:45:15.442Z,100758.81
2023-04-13T00:47:46.761Z,100757.84
2023-04-13T00:50:14.567Z,100752.44
2023-04-13T00:52:42.943Z,100752.44
2023-04-13T00:55:09.838Z,100751.69
2023-04-13T00:57:40.851Z,100754.38
2023-04-13T01:00:09.809Z,100748.22
2023-04-13T01:02:41.959Z,100747.31
2023-04-13T01:05:12.631Z,100743.06
2023-04-13T01:07:59.559Z,100738.88
2023-04-13T01:10:54.659Z,100737.94
2023-04-13T01:13:25.348Z,100738.88
2023-04-13T01:16:04.222Z,100733.47
2023-04-13T01:18:33.445Z,100732.53
2023-04-13T01:21:02.424Z,100731.69
2023-04-13T01:23:59.223Z,100723.84
2023-04-13T01:26:55.177Z,100725.63
2023-04-13T01:29:22.445Z,100724.63
2023-04-13T01:31:50.240Z,100718.47
2023-04-13T01:34:17.195Z,100714.03
2023-04-13T01:36:44.625Z,100715.81
2023-04-13T01:39:19.422Z,100720.09
2023-04-13T01:41:46.420Z,100713.97
2023-04-13T01:44:13.820Z,100699.84
2023-04-13T01:46:47.770Z,100710.19
2023-04-13T01:49:19.603Z,100698.53
2023-04-13T01:51:48.337Z,100699.34
2023-04-13T01:54:20.632Z,100695.75
2023-04-13T01:56:48.997Z,100704.50
2023-04-13T01:59:16.706Z,100702.75
2023-04-13T02:01:44.047Z,100694.91
2023-04-13T02:04:11.055Z,100695.78
2023-04-13T02:06:37.967Z,100700.28
2023-04-13T02:09:06.973Z,100690.72
2023-04-13T02:11:35.525Z,100688.16
2023-04-13T02:14:02.462Z,100694.34
2023-04-13T02:16:29.232Z,100698.75
2023-04-13T02:18:58.493Z,100698.91
2023-04-13T02:21:25.920Z,100704.25
2023-04-13T02:23:53.002Z,100701.66
2023-04-13T02:26:20.205Z,100711.50
2023-04-13T02:28:47.332Z,100710.69
2023-04-13T02:31:17.366Z,100712.50
2023-04-13T02:33:44.901Z,100710.72
2023-04-13T02:36:12.399Z,100706.19
2023-04-13T02:38:39.162Z,100703.56
2023-04-13T02:41:06.696Z,100714.91
2023-04-13T02:43:34.429Z,100708.72
2023-04-13T02:46:01.238Z,100713.97
2023-04-13T02:48:28.350Z,100704.25
2023-04-13T02:50:55.169Z,100710.41
2023-04-13T02:53:22.225Z,100704.25
2023-04-13T02:55:53.789Z,100703.28
2023-04-13T02:58:21.470Z,100701.47
2023-04-13T03:00:48.845Z,100718.97
2023-04-13T03:03:17.084Z,100717.16
2023-04-13T03:05:43.973Z,100717.97
2023-04-13T03:08:10.727Z,100716.16
2023-04-13T03:10:37.843Z,100710.78
2023-04-13T03:13:04.603Z,100717.78
2023-04-13T03:15:31.733Z,100709.88
2023-04-13T03:18:00.143Z,100709.00
2023-04-13T03:20:29.219Z,100712.53
2023-04-13T03:22:56.323Z,100709.84
2023-04-13T03:25:23.041Z,100720.44
2023-04-13T03:27:50.751Z,100718.72
2023-04-13T03:30:18.791Z,100720.44
2023-04-13T03:32:45.738Z,100722.25
2023-04-13T03:35:12.528Z,100722.34
2023-04-13T03:37:43.579Z,100723.31
2023-04-13T03:40:10.702Z,100725.09
2023-04-13T03:42:37.872Z,100728.69
2023-04-13T03:45:06.156Z,100711.97
2023-04-13T03:47:32.861Z,100723.44
2023-04-13T03:49:59.537Z,100710.41
2023-04-13T03:52:26.238Z,100708.81
2023-04-13T03:54:52.982Z,100712.56
2023-04-13T03:57:21.372Z,100721.44
2023-04-13T03:59:48.184Z,100717.06
2023-04-13T04:02:14.895Z,100716.25
2023-04-13T04:04:41.562Z,100725.09
2023-04-13T04:07:08.702Z,100730.47
2023-04-13T04:09:35.353Z,100720.91
2023-04-13T04:12:02.245Z,100724.56
2023-04-13T04:14:28.930Z,100732.56
2023-04-13T04:16:55.626Z,100730.88
2023-04-13T04:19:22.289Z,100720.31
2023-04-13T04:21:49.921Z,100707.09
2023-04-13T04:24:23.544Z,100709.75
2023-04-13T04:26:50.840Z,100715.88
2023-04-13T04:29:22.361Z,100729.09
2023-04-13T04:31:53.831Z,100728.16
2023-04-13T04:34:20.978Z,100751.03
2023-04-13T04:36:52.076Z,100745.59
2023-04-13T04:39:23.601Z,100741.13
2023-04-13T04:41:54.661Z,100757.88
2023-04-13T04:44:25.453Z,100748.13
2023-04-13T04:46:53.025Z,100753.44
2023-04-13T04:49:21.698Z,100758.69
2023-04-13T04:51:49.242Z,100754.28
2023-04-13T04:54:20.222Z,100756.91
2023-04-13T04:56:51.211Z,100757.84
2023-04-13T04:59:20.542Z,100760.47
2023-04-13T05:01:49.644Z,100750.72
2023-04-13T05:04:16.518Z,100738.41
2023-04-13T05:06:44.868Z,100744.47
2023-04-13T05:09:11.874Z,100738.25
2023-04-13T05:11:39.181Z,100747.13
2023-04-13T05:14:06.105Z,100769.19
2023-04-13T05:16:34.459Z,100773.63
2023-04-13T05:19:01.899Z,100771.88
2023-04-13T05:21:28.865Z,100767.50
2023-04-13T05:23:56.580Z,100764.94
2023-04-13T05:26:25.565Z,100778.25
2023-04-13T05:28:52.380Z,100787.00
2023-04-13T05:31:19.066Z,100774.69
2023-04-13T05:33:46.718Z,100791.34
2023-04-13T05:36:13.648Z,100785.16
2023-04-13T05:38:40.315Z,100778.91
2023-04-13T05:41:07.495Z,100777.22
2023-04-13T05:43:37.334Z,100775.50
2023-04-13T05:46:04.140Z,100775.50
2023-04-13T05:48:33.592Z,100769.50
2023-04-13T05:51:00.989Z,100783.63
2023-04-13T05:53:27.753Z,100797.69
2023-04-13T05:55:54.835Z,100787.19
2023-04-13T05:58:22.106Z,100788.97
2023-04-13T06:00:48.838Z,100797.00
2023-04-13T06:03:16.489Z,100803.19
2023-04-13T06:05:43.789Z,100790.06
2023-04-13T06:08:10.768Z,100792.72
2023-04-13T06:10:37.709Z,100796.31
2023-04-13T06:13:04.453Z,100798.00
2023-04-13T06:15:31.987Z,100792.72
2023-04-13T06:17:58.735Z,100809.41
2023-04-13T06:20:25.546Z,100813.00
2023-04-13T06:22:52.222Z,100813.97
2023-04-13T06:25:19.712Z,100807.88
2023-04-13T06:27:48.627Z,100819.25
2023-04-13T06:30:15.811Z,100810.53
2023-04-13T06:32:42.623Z,100816.81
2023-04-13T06:35:10.936Z,100812.34
2023-04-13T06:37:39.072Z,100821.03
2023-04-13T06:40:12.777Z,100824.47
2023-04-13T06:42:41.254Z,100827.06
2023-04-13T06:45:09.094Z,100830.56
2023-04-13T06:47:37.361Z,100842.78
2023-04-13T06:50:06.645Z,100828.66
2023-04-13T06:52:34.040Z,100815.50
2023-04-13T06:55:01.354Z,100832.19
2023-04-13T06:57:28.594Z,100843.69
2023-04-13T06:59:55.667Z,100837.50
2023-04-13T07:02:23.087Z,100846.22
2023-04-13T07:04:49.921Z,100862.84
2023-04-13T07:07:16.760Z,100860.22
2023-04-13T07:09:43.451Z,100846.22
2023-04-13T07:12:10.123Z,100845.41
2023-04-13T07:14:41.191Z,100856.00
2023-04-13T07:17:08.831Z,100856.13
2023-04-13T07:19:36.846Z,100857.91
2023-04-13T07:22:04.364Z,100841.16
2023-04-13T07:24:34.094Z,100835.06
2023-04-13T07:27:01.446Z,100840.28
2023-04-13T07:29:28.224Z,100855.22
2023-04-13T07:32:03.423Z,100856.94
2023-04-13T07:34:30.847Z,100850.78
2023-04-13T07:36:57.522Z,100840.97
2023-04-13T07:39:24.220Z,100846.06
2023-04-13T07:41:51.249Z,100858.34
2023-04-13T07:44:17.910Z,100847.66
2023-04-13T07:46:44.640Z,100860.75
2023-04-13T07:49:11.417Z,100859.75
2023-04-13T07:51:38.222Z,100850.81
2023-04-13T07:54:05.019Z,100856.88
2023-04-13T07:56:31.850Z,100861.88
2023-04-13T07:58:58.764Z,100857.97
2023-04-13T08:01:26.466Z,100858.56
2023-04-13T08:03:53.555Z,100861.75
2023-04-13T08:06:23.519Z,100869.28
2023-04-13T08:08:50.210Z,100876.69
2023-04-13T08:11:16.931Z,100869.25
2023-04-13T08:13:43.723Z,100878.72
2023-04-13T08:16:11.325Z,100893.63
2023-04-13T08:18:38.469Z,100888.31
2023-04-13T08:21:15.313Z,100893.44
2023-04-13T08:23:43.150Z,100887.59
2023-04-13T08:26:20.539Z,100898.16
2023-04-13T08:28:53.129Z,100891.81
2023-04-13T08:31:20.531Z,100907.81
2023-04-13T08:33:47.344Z,100915.19
2023-04-13T08:36:14.177Z,100916.72
2023-04-13T08:38:41.078Z,100913.28
2023-04-13T08:41:09.897Z,100907.63
2023-04-13T08:43:36.662Z,100909.94
2023-04-13T08:46:05.952Z,100910.38
2023-04-13T08:48:46.054Z,100908.78
2023-04-13T08:51:22.531Z,100915.69
2023-04-13T08:53:49.844Z,100916.34
2023-04-13T08:56:16.854Z,100932.97
2023-04-13T08:58:45.252Z,100935.69
2023-04-13T09:01:16.373Z,100929.44
2023-04-13T09:03:59.454Z,100936.66
2023-04-13T09:06:33.270Z,100951.59
2023-04-13T09:09:03.549Z,100962.31
2023-04-13T09:11:30.223Z,100970.47
2023-04-13T09:13:57.430Z,100975.00
2023-04-13T09:16:24.444Z,100968.84
2023-04-13T09:18:52.758Z,100969.72
2023-04-13T09:21:19.706Z,100956.47
2023-04-13T09:23:56.853Z,100964.38
2023-04-13T09:26:23.990Z,100963.34
2023-04-13T09:28:54.857Z,100964.03
2023-04-13T09:31:22.911Z,100957.66
2023-04-13T09:33:52.115Z,100961.84
2023-04-13T09:36:22.857Z,100956.16
2023-04-13T09:38:57.927Z,100964.47
2023-04-13T09:41:38.938Z,100963.25
2023-04-13T09:44:24.914Z,100971.22
2023-04-13T09:47:02.571Z,100975.88
2023-04-13T09:49:43.766Z,100981.56
2023-04-13T09:52:24.266Z,100982.00
2023-04-13T09:54:55.732Z,100987.31
2023-04-13T09:57:26.191Z,100983.66
2023-04-13T09:59:54.014Z,100986.19
2023-04-13T10:02:22.274Z,100983.28
2023-04-13T10:04:50.692Z,100991.25
2023-04-13T10:07:18.249Z,101000.16
2023-04-13T10:09:45.173Z,101006.59
2023-04-13T10:12:13.677Z,101011.31
2023-04-13T10:14:48.515Z,101008.84
2023-04-13T10:17:22.005Z,101018.72
2023-04-13T10:19:51.359Z,101014.38
2023-04-13T10:22:20.546Z,101025.84
2023-04-13T10:24:47.356Z,101020.72
2023-04-13T10:27:22.487Z,101016.59
2023-04-13T10:29:50.160Z,101010.72
2023-04-13T10:32:28.538Z,101010.88
2023-04-13T10:34:56.099Z,101008.25
2023-04-13T10:37:25.381Z,101010.13
2023-04-13T10:40:06.753Z,101005.03
2023-04-13T10:45:26.677Z,101016.22
2023-04-13T10:47:54.500Z,101019.03
2023-04-13T10:50:22.873Z,101034.22
2023-04-13T10:53:09.090Z,101028.28
2023-04-13T10:55:36.774Z,101037.28
2023-04-13T10:58:16.541Z,101027.78
2023-04-13T11:00:46.719Z,101034.03
2023-04-13T11:03:17.743Z,101029.78
2023-04-13T11:05:57.144Z,101035.22
2023-04-13T11:08:24.425Z,101036.22
2023-04-13T11:10:55.065Z,101039.03
2023-04-13T11:13:25.413Z,101038.34
2023-04-13T11:16:00.081Z,101038.56
2023-04-13T11:18:27.905Z,101031.56
2023-04-13T11:20:55.398Z,101029.09
2023-04-13T11:23:24.196Z,101030.16
2023-04-13T11:25:58.374Z,101037.38
2023-04-13T11:28:35.788Z,101031.38
2023-04-13T11:31:02.501Z,101049.16
2023-04-13T11:33:31.342Z,101050.28
2023-04-13T11:36:00.392Z,101044.28
2023-04-13T11:38:28.607Z,101047.00
2023-04-13T11:41:15.217Z,101047.22
2023-04-13T11:43:46.383Z,101047.53
2023-04-13T11:46:15.486Z,101039.75
2023-04-13T11:48:43.652Z,101051.34
2023-04-13T11:51:11.714Z,101044.41
2023-04-13T11:53:40.399Z,101060.25
2023-04-13T11:56:07.842Z,101047.16
2023-04-13T11:58:36.306Z,101038.50
2023-04-13T12:01:13.756Z,101048.34
2023-04-13T12:03:56.920Z,101058.97
2023-04-13T12:06:30.019Z,101052.94
2023-04-13T12:09:09.267Z,101049.56
2023-04-13T12:11:46.391Z,101059.34
2023-04-13T12:14:49.889Z,101061.16
2023-04-13T12:19:45.968Z,101054.06
2023-04-13T12:22:14.699Z,101058.53
2023-04-13T12:24:42.830Z,101053.38
2023-04-13T12:27:18.561Z,101063.09
2023-04-13T12:29:46.022Z,101057.81
2023-04-13T12:32:17.253Z,101058.81
2023-04-13T12:34:44.889Z,101063.38
2023-04-13T12:37:12.276Z,101057.34
2023-04-13T12:39:39.592Z,101074.97
2023-04-13T12:42:06.491Z,101069.69
2023-04-13T12:44:34.326Z,101072.34
2023-04-13T12:47:01.678Z,101065.28
2023-04-13T12:49:28.739Z,101071.41
2023-04-13T12:51:55.611Z,101072.34
2023-04-13T12:54:22.358Z,101073.31
2023-04-13T12:56:49.261Z,101078.69
2023-04-13T12:59:16.804Z,101077.09
2023-04-13T13:01:43.660Z,101081.63
2023-04-13T13:04:10.458Z,101094.03
2023-04-13T13:06:37.289Z,101095.84
2023-04-13T13:09:03.997Z,101089.81
2023-04-13T13:11:30.897Z,101094.34
2023-04-13T13:13:57.573Z,101099.81
2023-04-13T13:16:24.368Z,101112.19
2023-04-13T13:18:52.048Z,101095.69
2023-04-13T13:21:19.518Z,101108.97
2023-04-13T13:23:46.420Z,101107.41
2023-04-13T13:28:42.819Z,101119.81
2023-04-13T13:31:09.522Z,101114.63
2023-04-13T13:33:36.469Z,101119.91
2023-04-13T13:36:03.114Z,101112.97
2023-04-13T13:38:29.984Z,101120.91
2023-04-13T13:40:56.761Z,101141.19
2023-04-13T13:43:23.412Z,101137.72
2023-04-13T13:45:50.325Z,101126.34
2023-04-13T13:48:17.000Z,101136.03
2023-04-13T13:50:43.790Z,101128.13
2023-04-13T13:53:10.597Z,101133.38
2023-04-13T13:55:37.273Z,101134.34
2023-04-13T13:58:04.062Z,101152.00
2023-04-13T14:00:31.200Z,101141.50
2023-04-13T14:02:58.050Z,101136.19
2023-04-13T14:05:24.745Z,101158.09
2023-04-13T14:07:51.480Z,101144.09
2023-04-13T14:10:18.147Z,101152.00
2023-04-13T14:12:49.622Z,101156.44
2023-04-13T14:15:17.608Z,101154.78
2023-04-13T14:17:50.244Z,101166.34
2023-04-13T14:20:22.591Z,101163.75
2023-04-13T14:22:49.356Z,101169.03
2023-04-13T14:25:15.976Z,101166.34
2023-04-13T14:27:42.580Z,101166.31
2023-04-13T14:30:09.766Z,101165.44
2023-04-13T14:32:36.553Z,101168.16
2023-04-13T14:35:03.261Z,101171.75
2023-04-13T14:37:29.991Z,101166.53
2023-04-13T14:39:56.593Z,101178.81
2023-04-13T14:42:24.901Z,101175.25
2023-04-13T14:44:52.011Z,101180.59
2023-04-13T14:47:19.823Z,101184.25
2023-04-13T14:49:47.492Z,101178.22
2023-04-13T14:52:14.796Z,101180.06
2023-04-13T14:54:42.116Z,101178.34
2023-04-13T14:57:09.994Z,101183.63
2023-04-13T14:59:37.368Z,101191.50
2023-04-13T15:02:04.375Z,101197.59
2023-04-13T15:04:31.654Z,101204.63
2023-04-13T15:06:58.867Z,101197.69
2023-04-13T15:09:25.716Z,101203.88
2023-04-13T15:11:52.642Z,101213.56
2023-04-13T15:14:19.394Z,101214.47
2023-04-13T15:16:46.315Z,101216.28
2023-04-13T15:19:13.032Z,101208.34
2023-04-13T15:21:39.802Z,101214.47
2023-04-13T15:24:07.106Z,101209.19
2023-04-13T15:26:39.670Z,101215.28
2023-04-13T15:29:07.334Z,101219.72
2023-04-13T15:31:36.362Z,101227.63
2023-04-13T15:34:05.710Z,101223.22
2023-04-13T15:36:32.336Z,101219.66
2023-04-13T15:38:59.228Z,101215.28
2023-04-13T15:41:27.521Z,101228.47
2023-04-13T15:43:55.700Z,101222.38
2023-04-13T15:46:22.491Z,101225.91
2023-04-13T15:48:50.468Z,101224.16
2023-04-13T15:51:17.344Z,101232.91
2023-04-13T15:53:43.986Z,101227.63
2023-04-13T15:56:10.693Z,101220.63
2023-04-13T15:58:37.649Z,101226.78
2023-04-13T16:01:07.968Z,101217.16
2023-04-13T16:03:35.601Z,101217.16
2023-04-13T16:06:03.338Z,101215.44
2023-04-13T16:08:30.018Z,101218.06
2023-04-13T16:10:56.721Z,101216.31
2023-04-13T16:13:23.486Z,101211.97
2023-04-13T16:15:55.838Z,101223.41
2023-04-13T16:18:31.967Z,101209.44
2023-04-13T16:21:03.720Z,101218.22
2023-04-13T16:23:34.654Z,101226.16
2023-04-13T16:26:01.978Z,101216.53
2023-04-13T16:28:29.753Z,101214.81
2023-04-13T16:30:56.530Z,101215.66
2023-04-13T16:33:23.390Z,101222.69
2023-04-13T16:35:51.347Z,101230.56
2023-04-13T16:38:17.968Z,101216.53
2023-04-13T16:40:44.547Z,101225.31
2023-04-13T16:43:11.240Z,101225.31
2023-04-13T16:45:37.925Z,101233.16
2023-04-13T16:48:05.482Z,101235.78
2023-04-13T16:50:32.479Z,101225.22
2023-04-13T16:52:59.925Z,101228.72
2023-04-13T16:55:28.644Z,101240.97
2023-04-13T16:57:55.980Z,101229.59
2023-04-13T17:00:23.124Z,101244.53
2023-04-13T17:02:50.040Z,101261.22
2023-04-13T17:05:17.003Z,101263.84
2023-04-13T17:07:46.879Z,101261.25
2023-04-13T17:10:14.685Z,101263.00
2023-04-13T17:12:41.383Z,101275.31
2023-04-13T17:15:09.491Z,101284.09
2023-04-13T17:17:38.407Z,101286.72
2023-04-13T17:20:06.499Z,101278.88
2023-04-13T17:22:33.128Z,101278.03
2023-04-13T17:24:59.873Z,101286.78
2023-04-13T17:27:26.669Z,101277.13
2023-04-13T17:29:53.319Z,101282.44
2023-04-13T17:32:21.861Z,101277.16
2023-04-13T17:34:49.280Z,101285.94
2023-04-13T17:37:16.100Z,101271.94
2023-04-13T17:39:47.318Z,101275.44
2023-04-13T17:42:15.144Z,101285.09
2023-04-13T17:44:42.342Z,101264.06
2023-04-13T17:47:09.229Z,101285.09
2023-04-13T17:49:36.768Z,101277.19
2023-04-13T17:52:03.836Z,101274.56
2023-04-13T17:54:30.496Z,101295.59
2023-04-13T17:56:57.132Z,101293.00
2023-04-13T17:59:23.727Z,101292.16
2023-04-13T18:01:54.515Z,101293.06
2023-04-13T18:04:21.520Z,101295.69
2023-04-13T18:06:48.740Z,101300.03
2023-04-13T18:09:15.645Z,101303.59
2023-04-13T18:11:42.314Z,101307.06
2023-04-13T18:14:12.299Z,101300.06
2023-04-13T18:16:39.476Z,101307.94
2023-04-13T18:19:06.433Z,101306.19
2023-04-13T18:21:33.542Z,101306.19
2023-04-13T18:24:03.227Z,101313.16
2023-04-13T18:26:30.037Z,101311.44
2023-04-13T18:28:56.919Z,101314.97
2023-04-13T18:31:23.874Z,101314.97
2023-04-13T18:33:50.581Z,101317.56
2023-04-13T18:36:18.417Z,101323.69
2023-04-13T18:38:46.120Z,101325.44
2023-04-13T18:41:13.438Z,101331.56
2023-04-13T18:43:40.826Z,101317.53
2023-04-13T18:46:08.155Z,101328.06
2023-04-13T18:48:35.753Z,101327.19
2023-04-13T18:51:03.605Z,101323.69
2023-04-13T18:53:30.979Z,101330.69
2023-04-13T18:55:58.795Z,101328.13
2023-04-13T18:58:26.456Z,101320.25
2023-04-13T19:00:53.168Z,101323.78
2023-04-13T19:03:19.977Z,101322.00
2023-04-13T19:05:47.256Z,101322.91
2023-04-13T19:08:14.105Z,101322.91
2023-04-13T19:10:41.670Z,101315.00
2023-04-13T19:13:08.323Z,101322.91
2023-04-13T19:15:35.838Z,101312.41
2023-04-13T19:18:04.245Z,101308.88
2023-04-13T19:20:31.210Z,101313.28
2023-04-13T19:22:57.923Z,101312.41
2023-04-13T19:25:24.592Z,101316.81
2023-04-13T19:27:51.375Z,101311.53
2023-04-13T19:30:18.953Z,101314.16
2023-04-13T19:32:47.587Z,101322.94
2023-04-13T19:35:14.593Z,101315.94
2023-04-13T19:37:41.790Z,101319.44
2023-04-13T19:40:14.981Z,101320.34
2023-04-13T19:42:46.040Z,101317.72
2023-04-13T19:45:14.922Z,101308.06
2023-04-13T19:47:42.482Z,101313.38
2023-04-13T19:50:12.459Z,101323.84
2023-04-13T19:52:39.938Z,101324.75
2023-04-13T19:55:08.467Z,101323.88
2023-04-13T19:57:36.914Z,101316.88
2023-04-13T20:00:07.411Z,101325.63
2023-04-13T20:02:34.186Z,101312.47
2023-04-13T20:05:00.871Z,101313.38
2023-04-13T20:07:27.533Z,101314.25
2023-04-13T20:09:54.225Z,101315.16
2023-04-13T20:12:21.613Z,101315.16
2023-04-13T20:14:49.436Z,101318.66
2023-04-13T20:17:16.340Z,101328.34
2023-04-13T20:19:43.013Z,101326.56
2023-04-13T20:22:10.246Z,101323.94
2023-04-13T20:24:36.904Z,101327.47
2023-04-13T20:27:03.528Z,101317.84
2023-04-13T20:29:30.155Z,101301.19
2023-04-13T20:31:57.296Z,101308.19
2023-04-13T20:34:27.387Z,101312.56
2023-04-13T20:36:56.421Z,101320.47
2023-04-13T20:39:25.734Z,101325.72
2023-04-13T20:41:55.875Z,101316.97
2023-04-13T20:44:27.387Z,101327.47
2023-04-13T20:46:54.466Z,101336.25
2023-04-13T20:49:22.975Z,101347.63
2023-04-13T20:51:56.057Z,101345.88
2023-04-13T20:54:23.457Z,101351.09
2023-04-13T20:56:50.355Z,101362.50
2023-04-13T20:59:18.400Z,101360.72
2023-04-13T21:01:45.711Z,101363.38
2023-04-13T21:04:12.583Z,101378.25
2023-04-13T21:06:40.493Z,101376.50
2023-04-13T21:09:08.298Z,101368.63
2023-04-13T21:11:35.049Z,101372.09
2023-04-13T21:14:01.964Z,101378.25
2023-04-13T21:16:28.882Z,101383.50
2023-04-13T21:18:55.994Z,101387.03
2023-04-13T21:21:24.145Z,101384.38
2023-04-13T21:23:51.288Z,101389.63
2023-04-13T21:26:17.932Z,101383.53
2023-04-13T21:28:44.629Z,101390.50
2023-04-13T21:31:11.293Z,101394.00
2023-04-13T21:33:38.046Z,101392.25
2023-04-13T21:38:41.601Z,101398.38
2023-04-13T21:41:19.188Z,101394.84
2023-04-13T21:43:46.530Z,101398.38
2023-04-13T21:46:15.078Z,101382.59
2023-04-13T21:48:42.174Z,101393.09
2023-04-13T21:51:09.694Z,101392.19
2023-04-13T21:53:36.720Z,101400.97
2023-04-13T21:56:04.880Z,101401.81
2023-04-13T21:58:39.475Z,101400.09
2023-04-13T22:01:07.635Z,101401.81
2023-04-13T22:03:38.280Z,101403.53
2023-04-13T22:06:07.238Z,101407.03
2023-04-13T22:08:34.262Z,101400.03
2023-04-13T22:11:01.529Z,101408.78
2023-04-13T22:13:28.539Z,101408.75
2023-04-13T22:15:55.432Z,101409.66
2023-04-13T22:18:22.341Z,101405.25
2023-04-13T22:20:49.016Z,101404.38
2023-04-13T22:23:15.942Z,101415.78
2023-04-13T22:25:42.608Z,101407.00
2023-04-13T22:28:09.198Z,101411.38
2023-04-13T22:30:36.396Z,101428.03
2023-04-13T22:33:03.031Z,101424.50
2023-04-13T22:35:29.668Z,101420.97
2023-04-13T22:37:56.265Z,101430.63
2023-04-13T22:40:22.852Z,101433.25
2023-04-13T22:42:49.448Z,101428.84
2023-04-13T22:45:16.325Z,101426.22
2023-04-13T22:47:42.981Z,101435.88
2023-04-13T22:50:09.880Z,101425.34
2023-04-13T22:52:36.522Z,101430.59
2023-04-13T22:55:03.317Z,101435.00
2023-04-13T22:57:29.930Z,101435.84
2023-04-13T22:59:56.624Z,101427.97
2023-04-13T23:02:23.326Z,101435.84
2023-04-13T23:04:50.204Z,101434.06
2023-04-13T23:07:16.941Z,101427.06
2023-04-13T23:09:43.530Z,101427.06
2023-04-13T23:12:10.140Z,101423.59
2023-04-13T23:14:36.752Z,101434.13
2023-04-13T23:17:03.978Z,101423.63
2023-04-13T23:19:30.593Z,101435.91
2023-04-13T23:21:57.214Z,101435.00
2023-04-13T23:24:23.857Z,101436.75
2023-04-13T23:26:50.442Z,101441.13
2023-04-13T23:29:17.126Z,101440.25
2023-04-13T23:31:43.764Z,101441.16
2023-04-13T23:34:10.428Z,101446.41
2023-04-13T23:36:37.175Z,101448.19
2023-04-13T23:39:04.412Z,101445.56
2023-04-13T23:41:31.040Z,101444.69
2023-04-13T23:43:57.794Z,101442.94
2023-04-13T23:46:24.972Z,101439.44
2023-04-13T23:48:51.581Z,101442.94
2023-04-13T23:51:18.225Z,101436.81
2023-04-13T23:53:44.819Z,101437.66
2023-04-13T23:56:11.438Z,101442.94
2023-04-13T23:58:38.063Z,101438.53
